Time;durP1;ratioP1;P1;durP2;ratioP2;P2;SDS_P1;SDS_P2;PMS_P1;PMS_P2;Temp;Humidity;BMP_temperature;BMP_pressure;BME280_temperature;BME280_humidity;BME280_pressure;Samples;Min_cycle;Max_cycle;Signal;HPM_P1;HPM_P2
2023/07/29 00:01:23;;;;;;;3.42;2.10;;;20.90;99.90;;;;;;5092450;28;20047;-68
2023/07/29 00:03:49;;;;;;;2.92;1.77;;;20.90;99.90;;;;;;5092713;28;20454;-68
2023/07/29 00:06:14;;;;;;;3.63;2.35;;;20.90;99.90;;;;;;5091330;28;20024;-68
2023/07/29 00:08:40;;;;;;;5.15;2.03;;;20.90;99.90;;;;;;5092816;28;20396;-67
2023/07/29 00:11:06;;;;;;;3.35;2.20;;;20.90;99.90;;;;;;5092269;28;20285;-68
2023/07/29 00:13:31;;;;;;;2.95;2.22;;;20.90;99.90;;;;;;5092141;28;20034;-69
2023/07/29 00:15:57;;;;;;;2.55;1.60;;;20.90;99.90;;;;;;5092095;28;20107;-68
2023/07/29 00:18:23;;;;;;;2.78;2.10;;;20.90;99.90;;;;;;5092077;28;20032;-68
2023/07/29 00:20:50;;;;;;;4.90;1.90;;;20.80;99.90;;;;;;5091304;28;20024;-67
2023/07/29 00:23:18;;;;;;;1.83;1.73;;;20.90;99.90;;;;;;5092020;28;20028;-68
2023/07/29 00:25:45;;;;;;;2.10;1.58;;;20.80;99.90;;;;;;5091897;28;20024;-68
2023/07/29 00:28:12;;;;;;;1.73;1.50;;;20.80;99.90;;;;;;5091973;28;20048;-67
2023/07/29 00:30:37;;;;;;;2.13;1.90;;;20.80;99.90;;;;;;5091833;28;20043;-67
2023/07/29 00:33:03;;;;;;;1.67;1.45;;;20.80;99.90;;;;;;5091352;28;20465;-69
2023/07/29 00:35:29;;;;;;;4.38;1.70;;;20.80;99.90;;;;;;5091049;28;20020;-68
2023/07/29 00:37:54;;;;;;;3.10;1.60;;;20.80;99.90;;;;;;5092065;28;20028;-68
2023/07/29 00:40:22;;;;;;;5.85;1.63;;;20.80;99.90;;;;;;5091750;28;20028;-68
2023/07/29 00:42:48;;;;;;;2.95;1.60;;;20.80;99.90;;;;;;5091680;28;20028;-68
2023/07/29 00:45:14;;;;;;;2.88;1.35;;;20.70;99.90;;;;;;5091584;28;20020;-68
2023/07/29 00:47:40;;;;;;;2.00;1.60;;;20.70;99.90;;;;;;5092167;28;20450;-68
2023/07/29 00:50:11;;;;;;;4.53;1.52;;;20.70;99.90;;;;;;5091105;28;20040;-68
2023/07/29 00:52:36;;;;;;;2.45;1.35;;;20.70;99.90;;;;;;5091418;28;20059;-68
2023/07/29 00:55:03;;;;;;;5.00;1.30;;;20.70;99.90;;;;;;5090270;28;20056;-68
2023/07/29 00:57:30;;;;;;;2.45;1.80;;;20.70;99.90;;;;;;5091199;28;20051;-68
2023/07/29 00:59:56;;;;;;;2.55;1.42;;;20.60;99.90;;;;;;5091105;28;20031;-68
2023/07/29 01:02:22;;;;;;;1.60;1.50;;;20.60;99.90;;;;;;5090593;28;20020;-68
2023/07/29 01:04:58;;;;;;;2.00;1.60;;;20.60;99.90;;;;;;5091157;28;20028;-68
2023/07/29 01:07:35;;;;;;;2.33;1.60;;;20.60;99.90;;;;;;5091167;28;20032;-69
2023/07/29 01:10:05;;;;;;;2.53;1.88;;;20.60;99.90;;;;;;5091222;28;20039;-68
2023/07/29 01:12:48;;;;;;;1.50;1.40;;;20.50;99.90;;;;;;5090044;28;20028;-68
2023/07/29 01:15:22;;;;;;;1.80;1.42;;;20.50;99.90;;;;;;5091021;28;20063;-68
2023/07/29 01:17:55;;;;;;;1.55;1.42;;;20.50;99.90;;;;;;5091291;28;20059;-68
2023/07/29 01:20:22;;;;;;;4.68;1.40;;;20.50;99.90;;;;;;5091155;28;20032;-68
2023/07/29 01:22:48;;;;;;;1.33;1.23;;;20.40;99.90;;;;;;5090590;28;20037;-68
2023/07/29 01:25:14;;;;;;;2.10;1.60;;;20.40;99.90;;;;;;5090910;28;20039;-68
2023/07/29 01:27:41;;;;;;;1.33;1.20;;;20.40;99.90;;;;;;5090845;28;20036;-68
2023/07/29 01:30:07;;;;;;;1.40;1.30;;;20.40;99.90;;;;;;5089460;28;20109;-68
2023/07/29 01:32:39;;;;;;;2.17;1.40;;;20.40;99.90;;;;;;5091009;28;20140;-68
2023/07/29 01:35:21;;;;;;;1.52;1.35;;;20.30;99.90;;;;;;5088250;28;20032;-68
2023/07/29 01:37:51;;;;;;;3.97;1.42;;;20.30;99.90;;;;;;5070318;28;20129;-68
2023/07/29 01:40:18;;;;;;;1.48;1.13;;;20.30;99.90;;;;;;5069039;28;20478;-70
2023/07/29 01:42:45;;;;;;;3.40;1.55;;;20.20;99.90;;;;;;5068967;28;20494;-67
2023/07/29 01:45:11;;;;;;;3.60;1.43;;;20.20;99.90;;;;;;5070328;28;20023;-69
2023/07/29 01:47:40;;;;;;;1.20;1.10;;;20.20;99.90;;;;;;5070688;28;20323;-70
2023/07/29 01:50:06;;;;;;;1.70;1.60;;;20.20;99.90;;;;;;5070579;28;20044;-68
2023/07/29 01:52:32;;;;;;;1.60;1.50;;;20.20;99.90;;;;;;5070418;28;20032;-68
2023/07/29 01:54:57;;;;;;;2.45;1.35;;;20.20;99.90;;;;;;5069986;28;20037;-68
2023/07/29 01:57:23;;;;;;;3.13;1.60;;;20.20;99.90;;;;;;5070059;28;20065;-68
2023/07/29 01:59:49;;;;;;;2.60;1.35;;;20.30;99.90;;;;;;5070247;28;20319;-68
2023/07/29 02:02:14;;;;;;;1.65;1.48;;;20.20;99.90;;;;;;5069708;28;20024;-68
2023/07/29 02:04:40;;;;;;;2.33;1.70;;;20.20;99.90;;;;;;5070229;28;20039;-68
2023/07/29 02:07:05;;;;;;;3.75;1.38;;;20.20;99.90;;;;;;5070164;28;20447;-70
2023/07/29 02:09:31;;;;;;;2.92;1.40;;;20.20;99.90;;;;;;5070255;28;20025;-69
2023/07/29 02:11:58;;;;;;;5.68;1.45;;;20.20;99.90;;;;;;5069874;28;20017;-69
2023/07/29 02:14:23;;;;;;;2.70;1.40;;;20.30;99.90;;;;;;5070729;28;20096;-68
2023/07/29 02:16:49;;;;;;;1.75;1.45;;;20.20;99.90;;;;;;5069917;28;20111;-69
2023/07/29 02:19:16;;;;;;;1.45;1.27;;;20.20;99.90;;;;;;5070337;28;20028;-69
2023/07/29 02:21:41;;;;;;;1.23;1.13;;;20.20;99.90;;;;;;5069919;28;20125;-69
2023/07/29 02:24:07;;;;;;;2.72;1.70;;;20.10;99.90;;;;;;5069913;28;20095;-68
2023/07/29 02:26:32;;;;;;;2.63;1.40;;;20.20;99.90;;;;;;5070352;28;20595;-67
2023/07/29 02:28:58;;;;;;;2.22;1.23;;;20.10;99.90;;;;;;5069814;28;20085;-68
2023/07/29 02:31:25;;;;;;;1.33;1.23;;;20.20;99.90;;;;;;5069824;28;20036;-69
2023/07/29 02:33:51;;;;;;;1.52;1.13;;;20.20;99.90;;;;;;5069719;28;20051;-68
2023/07/29 02:36:17;;;;;;;1.60;1.45;;;20.20;99.90;;;;;;5069853;28;20340;-68
2023/07/29 02:38:43;;;;;;;1.75;1.35;;;20.20;99.90;;;;;;5070445;28;20067;-68
2023/07/29 02:41:12;;;;;;;2.33;1.00;;;20.20;99.90;;;;;;5069820;28;20044;-70
2023/07/29 02:43:39;;;;;;;2.35;1.35;;;20.20;99.90;;;;;;5069771;28;20332;-69
2023/07/29 02:46:04;;;;;;;4.78;1.42;;;20.20;99.90;;;;;;5069855;28;20044;-69
2023/07/29 02:48:30;;;;;;;2.33;1.58;;;20.10;99.90;;;;;;5069975;28;20439;-68
2023/07/29 02:50:56;;;;;;;4.40;3.55;;;20.20;99.90;;;;;;5069607;28;20029;-69
2023/07/29 02:53:23;;;;;;;3.83;2.00;;;20.20;99.90;;;;;;5069134;28;20024;-68
2023/07/29 02:55:49;;;;;;;5.13;1.65;;;20.20;99.90;;;;;;5069540;28;20039;-67
2023/07/29 02:58:14;;;;;;;1.50;1.40;;;20.20;99.90;;;;;;5069873;28;20099;-68
2023/07/29 03:00:43;;;;;;;3.55;1.35;;;20.20;99.90;;;;;;5069504;28;20123;-68
2023/07/29 03:03:09;;;;;;;2.38;1.50;;;20.20;99.90;;;;;;5069515;28;20035;-68
2023/07/29 03:05:35;;;;;;;1.65;1.40;;;20.20;99.90;;;;;;5070322;28;20108;-67
2023/07/29 03:08:01;;;;;;;4.78;1.80;;;20.10;99.90;;;;;;5069547;28;20220;-68
2023/07/29 03:10:26;;;;;;;1.45;1.35;;;20.20;99.90;;;;;;5069314;28;20439;-67
2023/07/29 03:12:56;;;;;;;2.55;1.70;;;20.10;99.90;;;;;;5070702;28;20033;-68
2023/07/29 03:15:25;;;;;;;1.73;1.60;;;20.20;99.90;;;;;;5073005;28;20024;-68
2023/07/29 03:17:51;;;;;;;1.45;1.35;;;20.20;99.90;;;;;;5073657;28;20020;-67
2023/07/29 03:20:20;;;;;;;1.55;1.33;;;20.10;99.90;;;;;;5073263;28;20172;-67
2023/07/29 03:22:46;;;;;;;2.00;1.48;;;20.10;99.90;;;;;;5071703;28;20040;-69
2023/07/29 03:25:12;;;;;;;1.20;1.10;;;20.10;99.90;;;;;;5072740;28;20063;-69
2023/07/29 03:27:37;;;;;;;1.73;1.25;;;20.10;99.90;;;;;;5072837;28;20079;-69
2023/07/29 03:30:04;;;;;;;1.40;1.30;;;20.10;99.90;;;;;;5073117;28;20097;-69
2023/07/29 03:32:29;;;;;;;1.75;1.65;;;20.10;99.90;;;;;;5072839;28;20419;-68
2023/07/29 03:34:55;;;;;;;1.50;1.17;;;20.10;99.90;;;;;;5072761;28;20369;-69
2023/07/29 03:37:21;;;;;;;3.38;1.52;;;20.10;99.90;;;;;;5072617;28;20024;-68
2023/07/29 03:39:47;;;;;;;2.70;1.38;;;20.10;99.90;;;;;;5072455;28;20186;-67
2023/07/29 03:42:13;;;;;;;1.27;1.15;;;20.10;99.90;;;;;;5072575;28;20035;-69
2023/07/29 03:44:41;;;;;;;2.47;1.30;;;20.10;99.90;;;;;;5073126;28;20020;-69
2023/07/29 03:47:07;;;;;;;2.60;1.48;;;20.10;99.90;;;;;;5072612;28;20067;-68
2023/07/29 03:49:33;;;;;;;1.10;1.00;;;20.10;99.90;;;;;;5072923;28;20028;-69
2023/07/29 03:51:59;;;;;;;2.53;1.20;;;20.10;99.90;;;;;;5072493;28;20036;-68
2023/07/29 03:54:24;;;;;;;1.67;1.25;;;20.10;99.90;;;;;;5072407;28;20119;-69
2023/07/29 03:56:50;;;;;;;1.70;1.30;;;20.10;99.90;;;;;;5071635;28;20027;-70
2023/07/29 03:59:17;;;;;;;1.38;1.27;;;20.10;99.90;;;;;;5072228;28;20060;-68
2023/07/29 04:01:42;;;;;;;1.58;1.40;;;20.10;99.90;;;;;;5072041;28;20058;-68
2023/07/29 04:04:08;;;;;;;3.00;1.30;;;20.10;99.90;;;;;;5072220;28;20462;-67
2023/07/29 04:06:33;;;;;;;1.58;1.38;;;20.10;99.90;;;;;;5071054;28;20036;-68
2023/07/29 04:08:59;;;;;;;3.85;1.25;;;20.10;99.90;;;;;;5072243;28;20039;-68
2023/07/29 04:11:25;;;;;;;2.53;1.27;;;20.10;99.90;;;;;;5072749;28;20144;-69
2023/07/29 04:13:51;;;;;;;3.35;1.48;;;20.10;99.90;;;;;;5072007;28;20103;-68
2023/07/29 04:16:17;;;;;;;3.67;1.30;;;20.10;99.90;;;;;;5070701;28;20135;-69
2023/07/29 04:18:42;;;;;;;1.73;1.33;;;20.10;99.90;;;;;;5071740;28;20033;-69
2023/07/29 04:21:08;;;;;;;1.60;1.30;;;20.20;99.90;;;;;;5071604;28;20024;-69
2023/07/29 04:23:35;;;;;;;2.08;1.25;;;20.10;99.90;;;;;;5071592;28;20659;-70
2023/07/29 04:26:00;;;;;;;1.85;1.30;;;20.10;99.90;;;;;;5071746;28;20060;-69
2023/07/29 04:28:26;;;;;;;2.13;1.17;;;20.10;99.90;;;;;;5071825;28;20442;-69
2023/07/29 04:30:52;;;;;;;5.05;1.30;;;20.10;99.90;;;;;;5071582;28;20725;-68
2023/07/29 04:33:17;;;;;;;1.45;1.33;;;20.10;99.90;;;;;;5071383;28;20060;-68
2023/07/29 04:35:43;;;;;;;1.40;1.30;;;20.10;99.90;;;;;;5071164;28;20017;-68
2023/07/29 04:38:09;;;;;;;1.38;1.10;;;20.10;99.90;;;;;;5071658;28;20046;-68
2023/07/29 04:40:34;;;;;;;1.25;1.15;;;20.10;99.90;;;;;;5070373;28;20132;-68
2023/07/29 04:43:01;;;;;;;4.32;1.20;;;20.10;99.90;;;;;;5071479;28;20029;-69
2023/07/29 04:45:30;;;;;;;1.83;1.40;;;20.10;99.90;;;;;;5071177;28;20366;-68
2023/07/29 04:47:56;;;;;;;3.08;1.42;;;20.10;99.90;;;;;;5071350;28;20059;-68
2023/07/29 04:50:21;;;;;;;3.08;1.75;;;20.00;99.90;;;;;;5071670;28;20020;-70
2023/07/29 04:52:47;;;;;;;1.45;1.20;;;20.00;99.90;;;;;;5071236;28;20102;-69
2023/07/29 04:55:13;;;;;;;5.93;1.40;;;20.00;99.90;;;;;;5071045;28;20063;-69
2023/07/29 04:57:38;;;;;;;5.45;1.60;;;20.10;99.90;;;;;;5071160;28;20060;-67
2023/07/29 05:00:04;;;;;;;1.48;1.38;;;20.00;99.90;;;;;;5071403;28;20516;-68
2023/07/29 05:02:30;;;;;;;4.75;1.67;;;20.00;99.90;;;;;;5071718;28;20342;-68
2023/07/29 05:04:55;;;;;;;2.13;1.65;;;20.00;99.90;;;;;;5071290;28;20104;-68
2023/07/29 05:07:21;;;;;;;1.98;1.55;;;20.00;99.90;;;;;;5071001;28;20082;-69
2023/07/29 05:09:48;;;;;;;2.00;1.15;;;20.10;99.90;;;;;;5070844;28;20111;-69
2023/07/29 05:12:13;;;;;;;2.90;1.70;;;20.10;99.90;;;;;;5070716;28;20098;-67
2023/07/29 05:14:39;;;;;;;1.38;1.27;;;20.10;99.90;;;;;;5071060;28;20442;-69
2023/07/29 05:17:05;;;;;;;1.67;1.45;;;20.10;99.90;;;;;;5070657;28;20029;-67
2023/07/29 05:19:31;;;;;;;1.70;1.55;;;20.10;99.90;;;;;;5070776;28;20177;-69
2023/07/29 05:21:57;;;;;;;2.08;1.35;;;20.00;99.90;;;;;;5070505;28;20040;-68
2023/07/29 05:24:23;;;;;;;1.85;1.58;;;20.00;99.90;;;;;;5070617;28;20024;-69
2023/07/29 05:26:49;;;;;;;2.22;1.50;;;19.90;99.90;;;;;;5071017;28;20210;-69
2023/07/29 05:29:14;;;;;;;12.60;9.07;;;19.90;99.90;;;;;;5070673;28;20526;-69
2023/07/29 05:31:40;;;;;;;10.57;6.15;;;19.90;99.90;;;;;;5070477;28;20491;-69
2023/07/29 05:34:06;;;;;;;3.80;1.90;;;19.90;99.90;;;;;;5070339;28;20113;-68
2023/07/29 05:36:31;;;;;;;1.58;1.40;;;19.90;99.90;;;;;;5070343;28;20093;-67
2023/07/29 05:38:57;;;;;;;1.60;1.50;;;20.00;99.90;;;;;;5070305;28;20444;-67
2023/07/29 05:41:23;;;;;;;2.08;1.55;;;20.00;99.90;;;;;;5070757;28;20036;-68
2023/07/29 05:43:48;;;;;;;3.05;1.67;;;20.00;99.90;;;;;;5069288;28;20048;-68
2023/07/29 05:46:14;;;;;;;2.08;1.20;;;20.10;99.90;;;;;;5070309;28;20064;-70
2023/07/29 05:48:40;;;;;;;5.05;1.27;;;20.10;99.90;;;;;;5069518;28;20039;-69
2023/07/29 05:51:05;;;;;;;6.72;4.53;;;20.10;99.90;;;;;;5070146;28;20450;-68
2023/07/29 05:53:31;;;;;;;3.33;3.00;;;20.10;99.90;;;;;;5070986;28;20473;-69
2023/07/29 05:55:57;;;;;;;6.28;3.88;;;20.20;99.90;;;;;;5070376;28;20040;-68
2023/07/29 05:58:22;;;;;;;1.95;1.77;;;20.20;99.90;;;;;;5070357;28;20048;-68
2023/07/29 06:00:48;;;;;;;2.30;1.90;;;20.30;99.90;;;;;;5070048;28;20467;-68
2023/07/29 06:03:14;;;;;;;2.20;1.35;;;20.30;99.90;;;;;;5070248;28;20040;-68
2023/07/29 06:05:39;;;;;;;1.70;1.13;;;20.20;99.90;;;;;;5070959;28;20055;-67
2023/07/29 06:08:05;;;;;;;2.22;1.70;;;20.30;99.90;;;;;;5069077;28;20036;-67
2023/07/29 06:10:31;;;;;;;3.67;1.70;;;20.30;99.90;;;;;;5070061;28;20025;-68
2023/07/29 06:12:57;;;;;;;1.60;1.23;;;20.20;99.90;;;;;;5069953;28;20039;-69
2023/07/29 06:15:22;;;;;;;2.38;1.50;;;20.20;99.90;;;;;;5069900;28;20031;-67
2023/07/29 06:17:48;;;;;;;3.38;1.55;;;20.30;99.90;;;;;;5069587;28;20024;-68
2023/07/29 06:20:14;;;;;;;3.13;2.20;;;20.30;99.90;;;;;;5068790;28;20043;-69
2023/07/29 06:22:42;;;;;;;3.70;1.35;;;20.30;99.90;;;;;;5069767;28;20416;-67
2023/07/29 06:25:08;;;;;;;1.70;1.52;;;20.20;99.90;;;;;;5069825;28;20055;-69
2023/07/29 06:27:33;;;;;;;1.92;1.33;;;20.20;99.90;;;;;;5069874;28;20464;-67
2023/07/29 06:29:59;;;;;;;3.10;1.88;;;20.20;99.90;;;;;;5069668;28;20044;-69
2023/07/29 06:32:25;;;;;;;4.53;2.35;;;20.20;99.90;;;;;;5070105;28;20051;-68
2023/07/29 06:34:51;;;;;;;4.00;2.38;;;20.30;99.90;;;;;;5070108;28;20032;-68
2023/07/29 06:37:17;;;;;;;3.30;1.80;;;20.30;99.90;;;;;;5069756;28;20093;-68
2023/07/29 06:39:43;;;;;;;4.78;1.73;;;20.30;99.90;;;;;;5069624;28;20040;-68
2023/07/29 06:42:08;;;;;;;1.67;1.52;;;20.30;99.90;;;;;;5069711;28;20040;-68
2023/07/29 06:44:34;;;;;;;1.67;1.45;;;20.30;99.90;;;;;;5070192;28;20061;-67
2023/07/29 06:46:59;;;;;;;2.65;1.40;;;20.30;99.90;;;;;;5069632;28;20037;-69
2023/07/29 06:49:25;;;;;;;3.70;2.30;;;20.40;99.90;;;;;;5073646;28;20078;-68
2023/07/29 06:51:51;;;;;;;6.82;3.22;;;20.50;99.90;;;;;;5073959;28;20040;-67
2023/07/29 06:54:17;;;;;;;3.53;2.60;;;20.50;99.90;;;;;;5073448;28;20029;-68
2023/07/29 06:56:43;;;;;;;2.42;1.67;;;20.70;99.90;;;;;;5073982;28;20039;-68
2023/07/29 06:59:08;;;;;;;2.28;1.50;;;20.80;99.90;;;;;;5073621;28;20032;-68
2023/07/29 07:01:34;;;;;;;2.10;1.42;;;20.80;99.90;;;;;;5073316;28;20036;-68
2023/07/29 07:04:00;;;;;;;2.30;1.48;;;20.80;99.90;;;;;;5073359;28;20035;-67
2023/07/29 07:06:26;;;;;;;4.18;1.60;;;20.90;99.90;;;;;;5072137;28;20102;-68
2023/07/29 07:08:51;;;;;;;1.77;1.67;;;20.80;99.90;;;;;;5073592;28;20024;-67
2023/07/29 07:11:18;;;;;;;3.22;1.55;;;20.90;99.90;;;;;;5073099;28;20088;-69
2023/07/29 07:13:44;;;;;;;5.90;1.75;;;21.00;99.90;;;;;;5073398;28;20055;-68
2023/07/29 07:16:10;;;;;;;4.47;1.63;;;21.00;99.90;;;;;;5072944;28;20393;-69
2023/07/29 07:18:35;;;;;;;2.40;1.70;;;21.00;99.90;;;;;;5072833;28;20028;-68
2023/07/29 07:21:01;;;;;;;2.05;1.38;;;21.10;99.90;;;;;;5071739;28;20087;-68
2023/07/29 07:23:27;;;;;;;2.28;1.63;;;21.10;99.90;;;;;;5073276;28;20031;-68
2023/07/29 07:25:52;;;;;;;2.85;1.58;;;21.10;99.90;;;;;;5072868;28;20028;-68
2023/07/29 07:28:18;;;;;;;1.88;1.50;;;21.10;99.90;;;;;;5072891;28;20055;-69
2023/07/29 07:30:44;;;;;;;1.90;1.70;;;21.10;99.90;;;;;;5072944;28;20032;-68
2023/07/29 07:33:09;;;;;;;1.67;1.58;;;21.10;99.90;;;;;;5071588;28;20055;-69
2023/07/29 07:35:35;;;;;;;3.63;1.58;;;21.10;99.90;;;;;;5073289;28;20028;-69
2023/07/29 07:38:03;;;;;;;2.67;1.40;;;21.20;99.90;;;;;;5073194;28;20098;-69
2023/07/29 07:40:31;;;;;;;1.92;1.67;;;21.20;99.90;;;;;;5072659;28;20029;-68
2023/07/29 07:42:56;;;;;;;15.63;11.32;;;21.20;99.90;;;;;;5072700;28;20032;-70
2023/07/29 07:45:22;;;;;;;31.45;21.02;;;21.10;99.90;;;;;;5072390;28;20090;-69
2023/07/29 07:47:47;;;;;;;5.60;3.35;;;21.20;99.90;;;;;;5072964;28;20026;-68
2023/07/29 07:50:14;;;;;;;5.18;2.63;;;21.20;99.90;;;;;;5072517;28;20102;-69
2023/07/29 07:52:39;;;;;;;4.97;1.83;;;21.20;99.90;;;;;;5072504;28;20037;-68
2023/07/29 07:55:06;;;;;;;3.63;1.50;;;21.30;99.90;;;;;;5072419;28;20037;-68
2023/07/29 07:57:31;;;;;;;3.25;1.40;;;21.40;99.90;;;;;;5071989;28;20562;-69
2023/07/29 07:59:57;;;;;;;1.23;1.13;;;21.40;99.90;;;;;;5071041;28;20115;-68
2023/07/29 08:02:23;;;;;;;4.70;1.75;;;21.50;99.90;;;;;;5072702;28;20023;-69
2023/07/29 08:04:48;;;;;;;3.20;2.00;;;21.50;99.90;;;;;;5072470;28;20483;-69
2023/07/29 08:07:14;;;;;;;1.60;1.40;;;21.60;99.90;;;;;;5072088;28;20531;-69
2023/07/29 08:09:40;;;;;;;4.60;1.73;;;21.60;99.90;;;;;;5072006;28;20128;-68
2023/07/29 08:12:06;;;;;;;1.77;1.60;;;21.70;99.90;;;;;;5072237;28;20025;-68
2023/07/29 08:14:31;;;;;;;2.95;1.50;;;21.70;99.90;;;;;;5055150;28;20013;-68
2023/07/29 08:16:57;;;;;;;3.55;1.80;;;21.70;99.90;;;;;;5072348;28;20025;-68
2023/07/29 08:19:23;;;;;;;2.25;1.40;;;21.70;99.90;;;;;;5072517;28;20039;-69
2023/07/29 08:21:48;;;;;;;2.05;1.45;;;21.80;99.90;;;;;;5072036;28;20055;-69
2023/07/29 08:24:14;;;;;;;3.33;1.92;;;21.80;99.90;;;;;;5072249;28;20514;-68
2023/07/29 08:26:40;;;;;;;2.97;1.85;;;21.80;99.90;;;;;;5071680;28;20044;-69
2023/07/29 08:29:05;;;;;;;2.00;1.75;;;21.90;99.90;;;;;;5072071;28;20025;-68
2023/07/29 08:31:33;;;;;;;2.30;1.90;;;22.00;99.90;;;;;;5072200;28;20033;-68
2023/07/29 08:33:59;;;;;;;3.33;2.63;;;22.00;99.90;;;;;;5072191;28;20051;-69
2023/07/29 08:36:25;;;;;;;5.00;3.28;;;21.90;99.90;;;;;;5072428;28;20261;-69
2023/07/29 08:38:51;;;;;;;4.07;3.05;;;22.00;99.90;;;;;;5071507;28;20346;-69
2023/07/29 08:41:24;;;;;;;3.38;2.78;;;22.00;99.90;;;;;;5072139;28;20032;-68
2023/07/29 08:44:06;;;;;;;5.07;2.97;;;21.90;99.90;;;;;;5072523;28;20060;-68
2023/07/29 08:46:32;;;;;;;5.40;3.10;;;21.90;99.90;;;;;;5073911;28;20036;-69
2023/07/29 08:49:01;;;;;;;6.05;3.45;;;21.90;99.90;;;;;;5071085;28;20052;-68
2023/07/29 08:51:27;;;;;;;3.72;3.35;;;21.80;99.90;;;;;;5072705;28;20128;-69
2023/07/29 08:53:53;;;;;;;3.45;2.80;;;21.90;99.90;;;;;;5072881;28;20402;-69
2023/07/29 08:56:19;;;;;;;2.78;2.50;;;21.90;99.90;;;;;;5072568;28;20446;-67
2023/07/29 08:58:45;;;;;;;3.97;3.20;;;21.90;99.90;;;;;;5072291;28;20309;-68
2023/07/29 09:01:11;;;;;;;6.20;2.72;;;21.90;99.90;;;;;;5071819;28;20084;-68
2023/07/29 09:03:37;;;;;;;3.60;2.38;;;21.90;99.90;;;;;;5072074;28;20335;-68
2023/07/29 09:06:03;;;;;;;2.50;2.30;;;21.90;99.90;;;;;;5072359;28;20027;-68
2023/07/29 09:08:29;;;;;;;2.38;2.17;;;21.90;99.90;;;;;;5071074;28;20394;-69
2023/07/29 09:10:55;;;;;;;2.85;2.55;;;21.90;99.90;;;;;;5071482;28;20119;-69
2023/07/29 09:13:21;;;;;;;4.28;2.65;;;22.00;99.90;;;;;;5072085;28;20036;-68
2023/07/29 09:15:47;;;;;;;4.15;2.92;;;22.00;99.90;;;;;;5072074;28;20064;-68
2023/07/29 09:18:19;;;;;;;2.75;2.55;;;22.10;99.90;;;;;;5071890;28;20029;-68
2023/07/29 09:20:49;;;;;;;6.28;3.28;;;22.20;99.90;;;;;;5072064;28;20126;-69
2023/07/29 09:23:16;;;;;;;3.42;2.50;;;22.20;99.90;;;;;;5072885;28;20036;-68
2023/07/29 09:25:42;;;;;;;6.63;2.65;;;22.60;99.90;;;;;;5071339;28;20085;-68
2023/07/29 09:28:13;;;;;;;4.45;2.67;;;23.00;99.90;;;;;;5071623;28;20029;-68
2023/07/29 09:30:40;;;;;;;3.58;2.78;;;23.50;99.90;;;;;;5071209;28;20128;-69
2023/07/29 09:33:06;;;;;;;3.10;2.80;;;23.70;99.90;;;;;;5070895;28;20045;-70
2023/07/29 09:35:33;;;;;;;6.88;3.65;;;23.70;99.90;;;;;;5072056;28;20029;-68
2023/07/29 09:37:59;;;;;;;6.10;3.63;;;23.70;99.90;;;;;;5070766;28;20054;-69
2023/07/29 09:40:25;;;;;;;4.90;3.70;;;23.70;99.90;;;;;;5070396;28;20494;-69
2023/07/29 09:42:53;;;;;;;16.80;4.20;;;23.90;99.90;;;;;;5070438;28;20036;-69
2023/07/29 09:45:23;;;;;;;8.27;5.68;;;23.80;99.90;;;;;;5070372;28;20101;-70
2023/07/29 09:47:50;;;;;;;5.95;4.05;;;23.70;99.90;;;;;;5070740;28;20027;-69
2023/07/29 09:50:16;;;;;;;6.47;5.15;;;23.50;99.90;;;;;;5070303;28;20033;-68
2023/07/29 09:52:43;;;;;;;9.00;5.60;;;23.40;99.90;;;;;;5069344;28;20056;-69
2023/07/29 09:55:13;;;;;;;6.15;5.45;;;23.20;99.90;;;;;;5070596;28;20037;-69
2023/07/29 09:57:40;;;;;;;5.90;5.20;;;23.00;99.90;;;;;;5070681;28;20040;-69
2023/07/29 10:00:10;;;;;;;6.18;5.03;;;23.00;99.90;;;;;;5070353;28;20032;-69
2023/07/29 10:02:39;;;;;;;12.32;6.25;;;23.10;99.90;;;;;;5071161;28;20013;-69
2023/07/29 10:05:06;;;;;;;7.68;6.15;;;23.20;99.90;;;;;;5070046;28;20302;-68
2023/07/29 10:07:34;;;;;;;9.10;5.63;;;23.40;99.90;;;;;;5070140;28;20508;-69
2023/07/29 10:10:02;;;;;;;10.35;6.53;;;23.60;99.90;;;;;;5070051;28;20119;-69
2023/07/29 10:12:30;;;;;;;8.20;6.50;;;23.80;99.90;;;;;;5070356;28;20031;-68
2023/07/29 10:14:59;;;;;;;9.88;6.32;;;24.10;99.90;;;;;;5069942;28;20017;-69
2023/07/29 10:17:26;;;;;;;10.10;6.05;;;24.30;99.90;;;;;;5070322;28;20035;-69
2023/07/29 10:19:53;;;;;;;8.80;5.97;;;24.60;99.90;;;;;;5069160;28;20028;-70
2023/07/29 10:22:21;;;;;;;11.40;5.68;;;24.70;99.90;;;;;;5072071;28;20093;-70
2023/07/29 10:24:48;;;;;;;;;;;24.90;99.90;;;;;;5073613;28;20052;-69
2023/07/29 10:27:18;;;;;;;6.37;4.93;;;25.00;99.90;;;;;;5074590;28;19904;-69
2023/07/29 10:29:45;;;;;;;9.18;5.35;;;25.10;99.90;;;;;;5074539;28;20241;-69
2023/07/29 10:32:11;;;;;;;6.07;4.90;;;25.20;99.90;;;;;;5073008;28;20120;-69
2023/07/29 10:34:38;;;;;;;7.70;4.50;;;25.40;99.50;;;;;;5073099;28;20352;-69
2023/07/29 10:37:05;;;;;;;5.28;4.00;;;25.50;98.40;;;;;;5074237;28;20040;-69
2023/07/29 10:39:39;;;;;;;4.82;3.13;;;25.60;97.80;;;;;;5074043;28;20162;-68
2023/07/29 10:42:06;;;;;;;7.20;2.65;;;25.50;96.70;;;;;;5073764;28;20321;-70
2023/07/29 10:44:43;;;;;;;3.42;3.05;;;25.50;96.40;;;;;;5074501;28;20039;-68
2023/07/29 10:47:15;;;;;;;3.65;3.00;;;25.40;96.30;;;;;;5073846;28;20122;-69
2023/07/29 10:49:45;;;;;;;4.28;2.70;;;25.10;96.30;;;;;;5072614;28;20191;-69
2023/07/29 10:52:27;;;;;;;2.72;2.40;;;25.00;96.20;;;;;;5073598;28;20112;-69
2023/07/29 10:54:53;;;;;;;2.75;2.20;;;24.90;96.20;;;;;;5073538;28;20108;-70
2023/07/29 10:57:32;;;;;;;4.63;2.40;;;24.60;96.10;;;;;;5071957;28;20539;-70
2023/07/29 10:59:58;;;;;;;2.25;2.05;;;24.60;96.10;;;;;;5072344;28;20481;-68
2023/07/29 11:02:32;;;;;;;4.60;2.53;;;24.50;96.10;;;;;;5073921;28;20114;-68
2023/07/29 11:04:59;;;;;;;2.67;1.90;;;24.60;96.90;;;;;;5073371;28;20036;-68
2023/07/29 11:07:26;;;;;;;5.03;2.20;;;24.50;97.40;;;;;;5073483;28;20036;-70
2023/07/29 11:09:57;;;;;;;2.55;2.05;;;24.50;97.70;;;;;;5072041;28;20081;-69
2023/07/29 11:12:39;;;;;;;3.92;1.80;;;24.70;97.80;;;;;;5072153;28;20102;-69
2023/07/29 11:15:12;;;;;;;7.22;2.58;;;24.60;97.50;;;;;;5073166;28;20041;-69
2023/07/29 11:17:53;;;;;;;3.00;1.98;;;24.50;97.70;;;;;;5073668;28;20021;-70
2023/07/29 11:20:30;;;;;;;2.60;2.00;;;24.50;97.80;;;;;;5072826;28;20056;-69
2023/07/29 11:22:58;;;;;;;5.10;1.70;;;24.40;97.60;;;;;;5073103;28;20091;-69
2023/07/29 11:25:26;;;;;;;2.40;1.83;;;24.40;97.40;;;;;;5071981;28;20049;-70
2023/07/29 11:27:54;;;;;;;2.35;1.33;;;24.60;97.20;;;;;;5072873;28;20032;-68
2023/07/29 11:30:20;;;;;;;2.72;1.95;;;24.80;97.00;;;;;;5072744;28;20428;-70
2023/07/29 11:32:46;;;;;;;2.10;1.52;;;24.80;96.80;;;;;;5073044;28;20108;-69
2023/07/29 11:35:14;;;;;;;3.30;1.70;;;24.60;96.00;;;;;;5072920;28;20025;-68
2023/07/29 11:37:41;;;;;;;1.60;1.30;;;24.60;95.50;;;;;;5072766;28;20059;-69
2023/07/29 11:40:10;;;;;;;3.70;1.63;;;24.70;95.00;;;;;;5072682;28;20029;-69
2023/07/29 11:42:37;;;;;;;1.48;1.02;;;24.80;94.20;;;;;;5072608;28;20032;-70
2023/07/29 11:45:03;;;;;;;3.38;0.95;;;24.80;92.70;;;;;;5072641;28;20021;-69
2023/07/29 11:47:29;;;;;;;1.20;0.70;;;24.80;91.90;;;;;;5071805;28;20020;-69
2023/07/29 11:49:59;;;;;;;2.85;0.57;;;24.90;91.20;;;;;;5072428;28;20039;-70
2023/07/29 11:52:25;;;;;;;1.23;0.80;;;25.10;91.00;;;;;;5072667;28;20120;-68
2023/07/29 11:54:50;;;;;;;1.17;0.80;;;25.00;90.40;;;;;;5072523;28;20120;-70
2023/07/29 11:57:18;;;;;;;1.20;0.90;;;25.20;90.70;;;;;;5072434;28;20425;-69
2023/07/29 11:59:44;;;;;;;1.00;0.80;;;25.20;90.40;;;;;;5072711;28;20017;-68
2023/07/29 12:02:17;;;;;;;2.45;0.77;;;25.10;90.60;;;;;;5072121;28;20070;-69
2023/07/29 12:04:46;;;;;;;2.42;0.70;;;25.00;91.00;;;;;;5072173;28;20124;-70
2023/07/29 12:07:13;;;;;;;1.00;0.90;;;25.00;91.10;;;;;;5072092;28;20047;-69
2023/07/29 12:09:39;;;;;;;0.90;0.77;;;25.00;91.20;;;;;;5072582;28;20075;-69
2023/07/29 12:12:06;;;;;;;2.20;0.88;;;25.10;90.90;;;;;;5072025;28;20036;-69
2023/07/29 12:14:33;;;;;;;1.23;0.88;;;25.30;90.60;;;;;;5071345;28;20029;-68
2023/07/29 12:17:06;;;;;;;0.95;0.70;;;25.30;90.10;;;;;;5072140;28;20020;-69
2023/07/29 12:19:36;;;;;;;1.42;0.90;;;25.30;89.30;;;;;;5070764;28;20366;-67
2023/07/29 12:22:03;;;;;;;0.70;0.60;;;25.20;89.90;;;;;;5071711;28;20124;-70
2023/07/29 12:24:33;;;;;;;1.02;0.70;;;25.00;90.50;;;;;;5071662;28;20036;-69
2023/07/29 12:26:59;;;;;;;2.17;0.80;;;25.10;90.70;;;;;;5070640;28;20035;-68
2023/07/29 12:29:25;;;;;;;1.65;0.43;;;25.20;90.30;;;;;;5072089;28;20493;-70
2023/07/29 12:31:59;;;;;;;1.00;0.68;;;25.10;89.40;;;;;;5070551;28;20348;-69
2023/07/29 12:34:29;;;;;;;1.35;0.82;;;25.20;90.40;;;;;;5071645;28;20044;-68
2023/07/29 12:36:56;;;;;;;1.30;0.80;;;25.30;89.90;;;;;;5070562;28;20109;-70
2023/07/29 12:39:34;;;;;;;1.38;0.82;;;25.40;89.30;;;;;;5071512;28;20123;-69
2023/07/29 12:42:01;;;;;;;3.45;1.23;;;25.40;89.00;;;;;;5071308;28;20484;-69
2023/07/29 12:44:33;;;;;;;2.22;0.73;;;25.40;88.30;;;;;;5071295;28;20020;-70